Atlantic Island — C4VM2 — position and weather

sailwx.info

Track history (hours):
 
Tides and Currents Weather Stations Pressure Air Temp Water Temp Dewpoint Dewpoint Depression Visibility Wind Speed Wind Dir Waves Ship Positions

Atlantic Island

Last reported at 2014-Dec-18 19:10 UTC. Time now 2014-Dec-22 08:31 UTC.
Position N 36°39' W 006°55'.

Length 95 m; draft 4.5 m.

Type: Cargo ship. MMSI: 210754000.

Date/timePositionNaut miles runAvg speedWind from/ knotsBaromVisibWave heightAir tempDewpointWater temp
2014-Dec-18 19:10N 36°39' W 006°55'710.9
2014-Dec-18 18:33N 36°46' W 006°53'1111.0
2014-Dec-18 17:33N 36°57' W 006°51'  
2014-Dec-15 21:31N 35°58' W 005°31'2 0.0
2014-Dec-14 02:07N 35°56' W 005°31'4 6.3
2014-Dec-14 01:31N 35°59' W 005°28'7 7.3
2014-Dec-14 00:33N 35°56' W 005°20'2 2.0
2014-Dec-13 23:33N 35°54' W 005°19'0 0.0
2014-Dec-13 22:33N 35°54' W 005°19'0 0.0
2014-Dec-13 21:33N 35°54' W 005°19'0 0.0
2014-Dec-13 20:33N 35°54' W 005°19'0 0.0
2014-Dec-13 19:34N 35°54' W 005°19'0 0.0
2014-Dec-13 18:34N 35°54' W 005°19'0 0.0
2014-Dec-13 17:34N 35°54' W 005°19'0 0.4
2014-Dec-13 16:33N 35°54' W 005°19'3 2.8
2014-Dec-13 15:33N 35°55' W 005°15'226 9.8
2014-Dec-12 16:33N 37°20' W 000°54'1111.0
2014-Dec-12 15:32N 37°28' W 000°44'1211.1
2014-Dec-12 14:24N 37°36' W 000°32'1011.1
2014-Dec-12 13:31N 37°44' W 000°25'1111.1
2014-Dec-12 12:31N 37°54' W 000°18'101 9.1
2014-Dec-12 01:26N 39°34' W 000°09'2 0.1
2014-Dec-10 15:12N 39°37' W 000°10'0 0.1
2014-Dec-10 14:32N 39°37' W 000°10'0 0.0
2014-Dec-10 13:33N 39°37' W 000°10'0 0.0
2014-Dec-10 12:33N 39°37' W 000°10'0 0.0
2014-Dec-10 11:33N 39°37' W 000°10'0 0.0
2014-Dec-10 10:33N 39°37' W 000°10'0 0.0
2014-Dec-10 09:33N 39°37' W 000°10'0 0.1
2014-Dec-10 08:26N 39°37' W 000°10'0 0.0
2014-Dec-10 07:33N 39°37' W 000°10'4 3.9
2014-Dec-10 06:31N 39°33' W 000°08'  
Track history (hours):
 
Tides and Currents Weather Stations Pressure Air Temp Water Temp Dewpoint Dewpoint Depression Visibility Wind Speed Wind Dir Waves Ship Positions

Atlantic Island

Last reported at 2014-Dec-18 19:10 UTC. Time now 2014-Dec-22 08:31 UTC.
Position N 36°39' W 006°55'.

Length 95 m; draft 4.5 m.

Type: Cargo ship. MMSI: 210754000.

Date/timePositionNaut miles runAvg speedWind from/ knotsBaromVisibWave heightAir tempDewpointWater temp
2014-Dec-18 19:10N 36°39' W 006°55'710.9
2014-Dec-18 18:33N 36°46' W 006°53'1111.0
2014-Dec-18 17:33N 36°57' W 006°51'  
2014-Dec-15 21:31N 35°58' W 005°31'2 0.0
2014-Dec-14 02:07N 35°56' W 005°31'4 6.3
2014-Dec-14 01:31N 35°59' W 005°28'7 7.3
2014-Dec-14 00:33N 35°56' W 005°20'2 2.0
2014-Dec-13 23:33N 35°54' W 005°19'0 0.0
2014-Dec-13 22:33N 35°54' W 005°19'0 0.0
2014-Dec-13 21:33N 35°54' W 005°19'0 0.0
2014-Dec-13 20:33N 35°54' W 005°19'0 0.0
2014-Dec-13 19:34N 35°54' W 005°19'0 0.0
2014-Dec-13 18:34N 35°54' W 005°19'0 0.0
2014-Dec-13 17:34N 35°54' W 005°19'0 0.4
2014-Dec-13 16:33N 35°54' W 005°19'3 2.8
2014-Dec-13 15:33N 35°55' W 005°15'226 9.8
2014-Dec-12 16:33N 37°20' W 000°54'1111.0
2014-Dec-12 15:32N 37°28' W 000°44'1211.1
2014-Dec-12 14:24N 37°36' W 000°32'1011.1
2014-Dec-12 13:31N 37°44' W 000°25'1111.1
2014-Dec-12 12:31N 37°54' W 000°18'101 9.1
2014-Dec-12 01:26N 39°34' W 000°09'2 0.1
2014-Dec-10 15:12N 39°37' W 000°10'0 0.1
2014-Dec-10 14:32N 39°37' W 000°10'0 0.0
2014-Dec-10 13:33N 39°37' W 000°10'0 0.0
2014-Dec-10 12:33N 39°37' W 000°10'0 0.0
2014-Dec-10 11:33N 39°37' W 000°10'0 0.0
2014-Dec-10 10:33N 39°37' W 000°10'0 0.0
2014-Dec-10 09:33N 39°37' W 000°10'0 0.1
2014-Dec-10 08:26N 39°37' W 000°10'0 0.0
2014-Dec-10 07:33N 39°37' W 000°10'4 3.9
2014-Dec-10 06:31N 39°33' W 000°08'  

Dump ship's entire track history